createdAt,value
2023-04-10T00:00:14.344Z,27.3
2023-04-10T00:05:16.149Z,27.3
2023-04-10T00:10:17.979Z,27.3
2023-04-10T00:15:19.723Z,27.3
2023-04-10T00:20:21.557Z,27.3
2023-04-10T00:25:23.329Z,27.3
2023-04-10T00:30:25.073Z,27.3
2023-04-10T00:35:26.859Z,27.3
2023-04-10T00:40:28.820Z,27.3
2023-04-10T00:45:30.581Z,27.3
2023-04-10T00:50:32.373Z,27.3
2023-04-10T00:55:34.192Z,27.3
2023-04-10T01:00:35.983Z,27.3
2023-04-10T01:05:37.773Z,27.3
2023-04-10T01:10:39.547Z,27.3
2023-04-10T01:15:41.323Z,27.3
2023-04-10T01:20:43.091Z,27.3
2023-04-10T01:25:44.865Z,27.3
2023-04-10T01:30:46.655Z,27.3
2023-04-10T01:35:48.421Z,27.3
2023-04-10T01:40:50.168Z,27.3
2023-04-10T01:45:51.997Z,27.3
2023-04-10T01:50:53.840Z,27.3
2023-04-10T01:55:55.653Z,27.3
2023-04-10T02:00:57.393Z,27.2
2023-04-10T02:05:59.121Z,27.3
2023-04-10T02:11:00.918Z,27.2
2023-04-10T02:16:04.148Z,27.2
2023-04-10T02:21:06.183Z,27.3
2023-04-10T02:26:08.004Z,27.2
2023-04-10T02:31:09.769Z,27.2
2023-04-10T02:36:11.577Z,27.2
2023-04-10T02:41:13.482Z,27.2
2023-04-10T02:46:15.262Z,27.2
2023-04-10T02:51:17.053Z,27.2
2023-04-10T02:56:18.896Z,27.2
2023-04-10T03:01:20.813Z,27.2
2023-04-10T03:06:22.578Z,27.2
2023-04-10T03:11:24.445Z,27.2
2023-04-10T03:16:26.249Z,27.2
2023-04-10T03:21:28.067Z,27.2
2023-04-10T03:26:30.016Z,27.2
2023-04-10T03:31:31.883Z,27.2
2023-04-10T03:36:33.699Z,27.2
2023-04-10T03:41:35.490Z,27.2
2023-04-10T03:46:37.273Z,27.2
2023-04-10T03:51:39.088Z,27.2
2023-04-10T03:56:40.877Z,27.2
2023-04-10T04:01:42.847Z,27.2
2023-04-10T04:06:44.681Z,27.2
2023-04-10T04:11:46.488Z,27.2
2023-04-10T04:16:48.300Z,27.2
2023-04-10T04:21:50.077Z,27.2
2023-04-10T04:26:51.873Z,27.2
2023-04-10T04:31:53.719Z,27.2
2023-04-10T04:36:55.489Z,27.2
2023-04-10T04:41:57.263Z,27.2
2023-04-10T04:46:59.049Z,27.2
2023-04-10T04:52:00.812Z,27.2
2023-04-10T04:57:02.579Z,27.2
2023-04-10T05:02:04.345Z,27.2
2023-04-10T05:07:06.147Z,27.2
2023-04-10T05:12:07.927Z,27.2
2023-04-10T05:17:08.886Z,27.2
2023-04-10T05:22:10.996Z,27.2
2023-04-10T05:27:12.844Z,27.2
2023-04-10T05:32:13.805Z,27.2
2023-04-10T05:37:15.577Z,27.2
2023-04-10T05:42:17.364Z,27.1
2023-04-10T05:47:19.134Z,27.1
2023-04-10T05:52:23.991Z,27.1
2023-04-10T05:57:25.804Z,27.1
2023-04-10T06:02:27.929Z,27.1
2023-04-10T06:07:30.001Z,27.1
2023-04-10T06:12:31.952Z,27.1
2023-04-10T06:17:33.869Z,27.1
2023-04-10T06:22:35.637Z,27.1
2023-04-10T06:27:37.385Z,27.1
2023-04-10T06:32:39.136Z,27.1
2023-04-10T06:37:40.869Z,27.1
2023-04-10T06:42:42.666Z,27.1
2023-04-10T06:47:47.401Z,27.1
2023-04-10T06:52:49.170Z,27.1
2023-04-10T06:57:51.448Z,27.1
2023-04-10T07:02:53.265Z,27.1
2023-04-10T07:07:55.037Z,27.1
2023-04-10T07:12:56.804Z,27.1
2023-04-10T07:17:58.723Z,27.1
2023-04-10T07:23:00.537Z,27.1
2023-04-10T07:28:02.309Z,27.1
2023-04-10T07:33:04.284Z,27.1
2023-04-10T07:38:06.267Z,27
2023-04-10T07:43:08.043Z,27.1
2023-04-10T07:48:09.785Z,27
2023-04-10T07:53:11.537Z,27
2023-04-10T07:58:13.355Z,27
2023-04-10T08:03:15.426Z,27
2023-04-10T08:08:17.419Z,27
2023-04-10T08:13:19.208Z,27
2023-04-10T08:18:20.973Z,27
2023-04-10T08:23:22.743Z,26.9
2023-04-10T08:28:24.645Z,26.9
2023-04-10T08:33:26.398Z,26.9
2023-04-10T08:38:28.213Z,26.9
2023-04-10T08:43:30.056Z,26.9
2023-04-10T08:48:31.847Z,26.9
2023-04-10T08:53:33.642Z,26.9
2023-04-10T08:58:38.484Z,26.7
2023-04-10T09:03:40.479Z,26.6
2023-04-10T09:08:45.239Z,26.6
2023-04-10T09:13:47.063Z,26.6
2023-04-10T09:18:48.832Z,26.6
2023-04-10T09:23:50.898Z,26.6
2023-04-10T09:28:52.726Z,26.6
2023-04-10T09:33:55.818Z,26.6
2023-04-10T09:38:57.842Z,26.6
2023-04-10T09:43:59.635Z,26.6
2023-04-10T09:49:02.442Z,26.6
2023-04-10T09:54:04.237Z,26.6
2023-04-10T09:59:07.134Z,26.6
2023-04-10T10:04:10.055Z,26.6
2023-04-10T10:09:11.908Z,26.6
2023-04-10T10:14:13.699Z,26.5
2023-04-10T10:19:15.486Z,26.5
2023-04-10T10:24:17.488Z,26.4
2023-04-10T10:29:19.331Z,26.4
2023-04-10T10:34:21.118Z,26.4
2023-04-10T10:39:22.889Z,26.4
2023-04-10T10:44:24.740Z,26.4
2023-04-10T10:49:26.535Z,26.4
2023-04-10T10:54:28.314Z,26.4
2023-04-10T10:59:30.138Z,26.4
2023-04-10T11:04:31.893Z,26.4
2023-04-10T11:09:33.907Z,26.4
2023-04-10T11:14:35.690Z,26.4
2023-04-10T11:19:37.578Z,26.4
2023-04-10T11:24:39.370Z,26.4
2023-04-10T11:29:41.221Z,26.4
2023-04-10T11:34:42.997Z,26.4
2023-04-10T11:39:44.908Z,26.4
2023-04-10T11:44:48.456Z,26.3
2023-04-10T11:49:51.617Z,26.3
2023-04-10T11:54:53.384Z,26.3
2023-04-10T11:59:55.163Z,26.3
2023-04-10T12:04:57.083Z,26.3
2023-04-10T12:09:59.022Z,26.3
2023-04-10T12:15:00.845Z,26.3
2023-04-10T12:20:02.678Z,26.3
2023-04-10T12:25:04.504Z,26.3
2023-04-10T12:30:06.645Z,26.2
2023-04-10T12:35:08.397Z,26.2
2023-04-10T12:40:10.155Z,26
2023-04-10T12:45:12.159Z,25.9
2023-04-10T12:50:13.929Z,25.9
2023-04-10T12:55:15.679Z,25.9
2023-04-10T13:00:17.513Z,25.9
2023-04-10T13:05:19.282Z,25.9
2023-04-10T13:10:21.311Z,25.9
2023-04-10T13:15:23.131Z,25.9
2023-04-10T13:20:25.033Z,25.9
2023-04-10T13:25:26.844Z,25.9
2023-04-10T13:30:29.735Z,25.9
2023-04-10T13:35:31.568Z,25.9
2023-04-10T13:40:33.380Z,25.9
2023-04-10T13:45:35.215Z,25.9
2023-04-10T13:50:38.597Z,25.9
2023-04-10T13:55:40.377Z,25.9
2023-04-10T14:00:42.537Z,25.9
2023-04-10T14:05:44.852Z,25.9
2023-04-10T14:10:47.856Z,25.9
2023-04-10T14:15:50.070Z,25.9
2023-04-10T14:20:54.848Z,25.9
2023-04-10T14:25:56.685Z,25.9
2023-04-10T14:30:58.447Z,25.9
2023-04-10T14:36:00.225Z,25.9
2023-04-10T14:41:02.165Z,25.9
2023-04-10T14:46:04.265Z,25.9
2023-04-10T14:51:05.996Z,25.9
2023-04-10T14:56:07.929Z,25.9
2023-04-10T15:01:09.844Z,25.9
2023-04-10T15:06:11.675Z,25.9
2023-04-10T15:11:13.434Z,25.9
2023-04-10T15:16:15.253Z,25.9
2023-04-10T15:21:17.019Z,25.9
2023-04-10T15:26:20.045Z,25.8
2023-04-10T15:31:21.882Z,25.6
2023-04-10T15:36:23.917Z,25.1
2023-04-10T15:41:25.647Z,25.1
2023-04-10T15:46:27.438Z,25.1
2023-04-10T15:51:29.279Z,25.1
2023-04-10T15:56:31.004Z,25
2023-04-10T16:01:32.943Z,27.2
2023-04-10T16:06:33.299Z,31
2023-04-10T16:11:33.565Z,33.7
2023-04-10T16:16:34.002Z,36.4
2023-04-10T16:21:34.900Z,39.2
2023-04-10T16:26:36.102Z,40.7
2023-04-10T16:31:37.581Z,41.6
2023-04-10T16:36:38.231Z,41.7
2023-04-10T16:41:38.761Z,42.5
2023-04-10T16:46:39.341Z,42.6
2023-04-10T16:51:39.987Z,43.1
2023-04-10T16:56:40.910Z,43.3
2023-04-10T17:01:41.804Z,43.2
2023-04-10T17:06:42.577Z,44.1
2023-04-10T17:11:43.207Z,44.3
2023-04-10T17:16:43.856Z,44.3
2023-04-10T17:21:44.676Z,44.3
2023-04-10T17:26:46.206Z,44.2
2023-04-10T17:31:46.957Z,44.2
2023-04-10T17:36:47.767Z,44.2
2023-04-10T17:41:48.433Z,44.1
2023-04-10T17:46:49.033Z,44.1
2023-04-10T17:51:49.662Z,44.1
2023-04-10T17:56:50.763Z,44.1
2023-04-10T18:01:51.421Z,44
2023-04-10T18:06:52.130Z,43.9
2023-04-10T18:11:52.742Z,43.9
2023-04-10T18:16:53.411Z,43.9
2023-04-10T18:21:54.055Z,43.9
2023-04-10T18:26:55.011Z,43.8
2023-04-10T18:31:55.622Z,43.8
2023-04-10T18:36:56.428Z,43.7
2023-04-10T18:41:57.054Z,43.7
2023-04-10T18:47:03.678Z,43.7
2023-04-10T18:52:05.182Z,43.6
2023-04-10T18:57:05.783Z,43.6
2023-04-10T19:02:06.554Z,43.6
2023-04-10T19:07:07.290Z,43.6
2023-04-10T19:12:07.904Z,43.5
2023-04-10T19:17:08.506Z,43.5
2023-04-10T19:22:09.138Z,43.4
2023-04-10T19:27:09.839Z,43.4
2023-04-10T19:32:11.357Z,43.4
2023-04-10T19:37:12.216Z,43.3
2023-04-10T19:42:12.821Z,43.3
2023-04-10T19:47:13.438Z,43.3
2023-04-10T19:52:14.023Z,43.2
2023-04-10T19:57:15.035Z,43.2
2023-04-10T20:02:15.792Z,43.1
2023-04-10T20:07:16.595Z,43.1
2023-04-10T20:12:17.303Z,43.1
2023-04-10T20:17:17.897Z,43
2023-04-10T20:22:18.649Z,43
2023-04-10T20:27:19.253Z,42.9
2023-04-10T20:32:19.829Z,42.9
2023-04-10T20:37:20.380Z,42.9
2023-04-10T20:42:20.964Z,42.8
2023-04-10T20:47:22.057Z,42.7
2023-04-10T20:52:22.647Z,42
2023-04-10T20:57:23.120Z,39.6
2023-04-10T21:02:23.659Z,39.1
2023-04-10T21:07:24.342Z,38.9
2023-04-10T21:12:24.811Z,38.9
2023-04-10T21:17:25.287Z,38.8
2023-04-10T21:22:27.025Z,38.7
2023-04-10T21:27:28.666Z,38.7
2023-04-10T21:32:29.172Z,38.6
2023-04-10T21:37:29.624Z,38.6
2023-04-10T21:42:30.088Z,38.5
2023-04-10T21:47:30.602Z,38.4
2023-04-10T21:52:31.071Z,38.4
2023-04-10T21:57:31.532Z,38.3
2023-04-10T22:02:32.369Z,38.2
2023-04-10T22:07:33.128Z,38.2
2023-04-10T22:12:33.566Z,38.1
2023-04-10T22:17:34.019Z,38.1
2023-04-10T22:22:34.525Z,38.1
2023-04-10T22:27:34.983Z,38
2023-04-10T22:32:35.415Z,37.9
2023-04-10T22:37:35.820Z,37.9
2023-04-10T22:42:36.537Z,37.8
2023-04-10T22:47:36.947Z,37.7
2023-04-10T22:52:37.343Z,37.7
2023-04-10T22:57:37.705Z,37.6
2023-04-10T23:02:38.192Z,37.6
2023-04-10T23:07:38.692Z,37.6
2023-04-10T23:12:39.060Z,37.5
2023-04-10T23:17:39.610Z,37.4
2023-04-10T23:22:40.143Z,37.4
2023-04-10T23:27:40.808Z,37.3
2023-04-10T23:32:41.247Z,37.2
2023-04-10T23:37:41.662Z,37.2
2023-04-10T23:42:42.056Z,37.2
2023-04-10T23:47:42.432Z,37.1
2023-04-10T23:52:42.869Z,37.1
2023-04-10T23:57:43.214Z,37
